N410HA KGCN-KPGA
Flight info
| Callsign | N410HA |
|---|---|
| Flight time | 0h 29m |
| Altitude | 9000 |
| Route | BLACK TOUR 1 THEN 4 |
| Aircraft | C208/L-VGD/C |
Departure
| Time | 2026-04-24 14:38 |
|---|---|
| Airport | Grand Canyon National Park Airport (KGCN) |
Arrival
| Time | 2026-04-24 15:08 |
|---|---|
| Airport | Page Municipal Airport (KPGA) |
| Time | Latitude | Longitude | Altitude | Speed | Heading |
|---|---|---|---|---|---|
| 2026-04-24 14:32 | 35.95995 | -112.13688 | 6619 ft | 0 kts | 220° |
| 2026-04-24 14:35 | 35.95988 | -112.13721 | 6619 ft | 5 kts | 311° |
| 2026-04-24 14:35 | 35.96016 | -112.13707 | 6619 ft | 15 kts | 46° |
| 2026-04-24 14:36 | 35.96100 | -112.13633 | 6621 ft | 0 kts | 8° |
| 2026-04-24 14:36 | 35.96101 | -112.13633 | 6621 ft | 0 kts | 5° |
| 2026-04-24 14:36 | 35.96123 | -112.13657 | 6621 ft | 8 kts | 305° |
| 2026-04-24 14:36 | 35.96139 | -112.13742 | 6619 ft | 14 kts | 226° |
| 2026-04-24 14:37 | 35.96027 | -112.13861 | 6617 ft | 43 kts | 220° |
| 2026-04-24 14:37 | 35.95625 | -112.14284 | 6603 ft | 103 kts | 220° |
| 2026-04-24 14:37 | 35.94995 | -112.14964 | 6652 ft | 133 kts | 222° |
| 2026-04-24 14:37 | 35.94266 | -112.15791 | 6744 ft | 150 kts | 225° |
| 2026-04-24 14:38 | 35.93498 | -112.16731 | 6827 ft | 160 kts | 226° |
| 2026-04-24 14:38 | 35.92712 | -112.17700 | 7075 ft | 156 kts | 226° |
| 2026-04-24 14:38 | 35.92265 | -112.18826 | 7468 ft | 146 kts | 274° |
| 2026-04-24 14:38 | 35.92670 | -112.19898 | 7869 ft | 138 kts | 320° |
| 2026-04-24 14:39 | 35.93533 | -112.20244 | 8262 ft | 132 kts | 4° |
| 2026-04-24 14:39 | 35.94420 | -112.20021 | 8644 ft | 129 kts | 14° |
| 2026-04-24 14:39 | 35.95279 | -112.19704 | 8967 ft | 132 kts | 15° |
| 2026-04-24 14:39 | 35.96222 | -112.19340 | 9017 ft | 152 kts | 16° |
| 2026-04-24 14:40 | 35.97288 | -112.18931 | 9014 ft | 167 kts | 16° |
| 2026-04-24 14:40 | 35.98408 | -112.18378 | 9008 ft | 176 kts | 28° |
| 2026-04-24 14:40 | 35.99499 | -112.17618 | 9006 ft | 181 kts | 28° |
| 2026-04-24 14:40 | 36.00601 | -112.16824 | 9013 ft | 183 kts | 30° |
| 2026-04-24 14:41 | 36.01708 | -112.16029 | 9019 ft | 186 kts | 29° |
| 2026-04-24 14:41 | 36.02809 | -112.15159 | 9002 ft | 188 kts | 43° |
| 2026-04-24 14:41 | 36.03291 | -112.13725 | 9015 ft | 188 kts | 92° |
| 2026-04-24 14:41 | 36.02824 | -112.12246 | 9055 ft | 186 kts | 124° |
| 2026-04-24 14:42 | 36.02067 | -112.10919 | 9069 ft | 187 kts | 128° |
| 2026-04-24 14:42 | 36.01271 | -112.09634 | 9069 ft | 189 kts | 127° |
| 2026-04-24 14:42 | 36.00463 | -112.08337 | 9020 ft | 192 kts | 128° |
| 2026-04-24 14:42 | 35.99641 | -112.07049 | 9006 ft | 191 kts | 128° |
| 2026-04-24 14:43 | 35.98827 | -112.05742 | 9002 ft | 190 kts | 128° |
| 2026-04-24 14:43 | 35.98048 | -112.04417 | 9027 ft | 189 kts | 116° |
| 2026-04-24 14:43 | 35.97655 | -112.02882 | 9055 ft | 188 kts | 106° |
| 2026-04-24 14:43 | 35.97266 | -112.01342 | 9051 ft | 189 kts | 107° |
| 2026-04-24 14:44 | 35.96911 | -111.99770 | 9068 ft | 189 kts | 102° |
| 2026-04-24 14:44 | 35.96633 | -111.98193 | 9090 ft | 189 kts | 103° |
| 2026-04-24 14:44 | 35.96346 | -111.96612 | 9097 ft | 189 kts | 102° |
| 2026-04-24 14:44 | 35.96239 | -111.94993 | 9068 ft | 190 kts | 72° |
| 2026-04-24 14:45 | 35.97010 | -111.93714 | 9099 ft | 185 kts | 44° |
| 2026-04-24 14:45 | 35.97899 | -111.92564 | 9122 ft | 183 kts | 45° |
| 2026-04-24 14:45 | 35.98768 | -111.91431 | 9133 ft | 183 kts | 45° |
| 2026-04-24 14:45 | 35.99661 | -111.90279 | 9130 ft | 184 kts | 45° |
| 2026-04-24 14:46 | 36.00543 | -111.89133 | 9136 ft | 185 kts | 45° |
| 2026-04-24 14:46 | 36.01437 | -111.87981 | 9126 ft | 186 kts | 45° |
| 2026-04-24 14:46 | 36.02334 | -111.86825 | 9123 ft | 185 kts | 45° |
| 2026-04-24 14:46 | 36.03220 | -111.85683 | 9138 ft | 184 kts | 45° |
| 2026-04-24 14:47 | 36.04115 | -111.84543 | 9145 ft | 184 kts | 45° |
| 2026-04-24 14:47 | 36.05016 | -111.83387 | 9147 ft | 185 kts | 41° |
| 2026-04-24 14:47 | 36.06181 | -111.82867 | 9163 ft | 181 kts | 356° |
| 2026-04-24 14:47 | 36.07451 | -111.82990 | 9150 ft | 182 kts | 353° |
| 2026-04-24 14:48 | 36.08709 | -111.83145 | 9145 ft | 182 kts | 352° |
| 2026-04-24 14:48 | 36.09990 | -111.83308 | 9144 ft | 182 kts | 352° |
| 2026-04-24 14:48 | 36.11265 | -111.83460 | 9140 ft | 183 kts | 356° |
| 2026-04-24 14:48 | 36.12555 | -111.83469 | 9135 ft | 183 kts | 357° |
| 2026-04-24 14:49 | 36.13844 | -111.83480 | 9134 ft | 183 kts | 358° |
| 2026-04-24 14:49 | 36.15124 | -111.83478 | 9135 ft | 183 kts | 358° |
| 2026-04-24 14:49 | 36.16407 | -111.83471 | 9132 ft | 184 kts | 358° |
| 2026-04-24 14:49 | 36.17682 | -111.83462 | 9131 ft | 184 kts | 358° |
| 2026-04-24 14:50 | 36.18962 | -111.83462 | 9131 ft | 183 kts | 358° |
| 2026-04-24 14:50 | 36.20217 | -111.83725 | 9135 ft | 181 kts | 340° |
| 2026-04-24 14:50 | 36.21427 | -111.84156 | 9134 ft | 181 kts | 341° |
| 2026-04-24 14:50 | 36.22636 | -111.84615 | 9134 ft | 181 kts | 341° |
| 2026-04-24 14:51 | 36.23853 | -111.85078 | 9133 ft | 181 kts | 341° |
| 2026-04-24 14:51 | 36.25055 | -111.85513 | 9132 ft | 182 kts | 341° |
| 2026-04-24 14:51 | 36.26325 | -111.85838 | 9128 ft | 183 kts | 354° |
| 2026-04-24 14:51 | 36.27600 | -111.85740 | 9128 ft | 184 kts | 2° |
| 2026-04-24 14:52 | 36.28868 | -111.85587 | 9126 ft | 184 kts | 4° |
| 2026-04-24 14:52 | 36.30160 | -111.85413 | 9125 ft | 184 kts | 4° |
| 2026-04-24 14:52 | 36.31440 | -111.85228 | 9125 ft | 184 kts | 4° |
| 2026-04-24 14:52 | 36.32717 | -111.85047 | 9122 ft | 184 kts | 4° |
| 2026-04-24 14:53 | 36.34001 | -111.84866 | 9120 ft | 184 kts | 4° |
| 2026-04-24 14:53 | 36.35272 | -111.84685 | 9118 ft | 184 kts | 4° |
| 2026-04-24 14:53 | 36.36549 | -111.84504 | 9118 ft | 184 kts | 4° |
| 2026-04-24 14:53 | 36.37833 | -111.84325 | 9120 ft | 184 kts | 4° |
| 2026-04-24 14:54 | 36.39107 | -111.84145 | 9122 ft | 184 kts | 4° |
| 2026-04-24 14:54 | 36.40367 | -111.83972 | 9123 ft | 184 kts | 4° |
| 2026-04-24 14:54 | 36.41645 | -111.83792 | 9123 ft | 184 kts | 4° |
| 2026-04-24 14:54 | 36.42927 | -111.83610 | 9123 ft | 184 kts | 4° |
| 2026-04-24 14:55 | 36.43766 | -111.83490 | 9122 ft | 184 kts | 4° |
| 2026-04-24 14:55 | 36.45443 | -111.82937 | 9121 ft | 185 kts | 14° |
| 2026-04-24 14:55 | 36.46666 | -111.82475 | 9121 ft | 185 kts | 15° |
| 2026-04-24 14:55 | 36.47926 | -111.81988 | 9123 ft | 185 kts | 15° |
| 2026-04-24 14:56 | 36.49156 | -111.81512 | 9124 ft | 185 kts | 15° |
| 2026-04-24 14:56 | 36.50382 | -111.81037 | 9123 ft | 185 kts | 15° |
| 2026-04-24 14:56 | 36.51569 | -111.80383 | 9123 ft | 187 kts | 34° |
| 2026-04-24 14:56 | 36.52628 | -111.79417 | 9124 ft | 187 kts | 33° |
| 2026-04-24 14:57 | 36.53674 | -111.78447 | 9123 ft | 187 kts | 34° |
| 2026-04-24 14:57 | 36.54729 | -111.77508 | 9122 ft | 185 kts | 33° |
| 2026-04-24 14:57 | 36.55784 | -111.76592 | 9122 ft | 186 kts | 32° |
| 2026-04-24 14:57 | 36.56857 | -111.75665 | 9122 ft | 186 kts | 32° |
| 2026-04-24 14:58 | 36.57936 | -111.74741 | 9121 ft | 187 kts | 32° |
| 2026-04-24 14:58 | 36.59003 | -111.73825 | 9119 ft | 187 kts | 32° |
| 2026-04-24 14:58 | 36.60085 | -111.72896 | 9119 ft | 187 kts | 32° |
| 2026-04-24 14:58 | 36.61163 | -111.71970 | 9121 ft | 187 kts | 32° |
| 2026-04-24 14:59 | 36.62237 | -111.71046 | 9121 ft | 187 kts | 32° |
| 2026-04-24 14:59 | 36.63321 | -111.70113 | 9122 ft | 187 kts | 32° |
| 2026-04-24 14:59 | 36.64394 | -111.69194 | 9090 ft | 189 kts | 32° |
| 2026-04-24 14:59 | 36.65502 | -111.68243 | 9016 ft | 192 kts | 32° |
| 2026-04-24 15:00 | 36.66596 | -111.67301 | 9020 ft | 190 kts | 32° |
| 2026-04-24 15:00 | 36.67688 | -111.66361 | 8998 ft | 190 kts | 32° |
| 2026-04-24 15:00 | 36.68786 | -111.65417 | 8881 ft | 195 kts | 32° |
| 2026-04-24 15:00 | 36.69925 | -111.64437 | 8745 ft | 199 kts | 32° |
| 2026-04-24 15:01 | 36.71055 | -111.63459 | 8529 ft | 198 kts | 32° |
| 2026-04-24 15:01 | 36.72184 | -111.62492 | 8310 ft | 196 kts | 33° |
| 2026-04-24 15:01 | 36.73320 | -111.61514 | 8091 ft | 195 kts | 32° |
| 2026-04-24 15:01 | 36.74421 | -111.60558 | 7889 ft | 195 kts | 33° |
| 2026-04-24 15:02 | 36.75536 | -111.59602 | 7672 ft | 194 kts | 33° |
| 2026-04-24 15:02 | 36.76644 | -111.58646 | 7450 ft | 194 kts | 33° |
| 2026-04-24 15:02 | 36.77753 | -111.57687 | 7228 ft | 193 kts | 33° |
| 2026-04-24 15:02 | 36.78659 | -111.56452 | 7011 ft | 194 kts | 64° |
| 2026-04-24 15:03 | 36.79190 | -111.54909 | 6800 ft | 193 kts | 65° |
| 2026-04-24 15:03 | 36.79689 | -111.53367 | 6584 ft | 193 kts | 68° |
| 2026-04-24 15:03 | 36.80198 | -111.51803 | 6364 ft | 193 kts | 67° |
| 2026-04-24 15:03 | 36.80690 | -111.50263 | 6148 ft | 193 kts | 68° |
| 2026-04-24 15:04 | 36.81182 | -111.48710 | 5981 ft | 189 kts | 67° |
| 2026-04-24 15:04 | 36.81657 | -111.47233 | 6019 ft | 178 kts | 68° |
| 2026-04-24 15:04 | 36.82093 | -111.45862 | 6014 ft | 164 kts | 67° |
| 2026-04-24 15:04 | 36.82709 | -111.44740 | 6033 ft | 152 kts | 36° |
| 2026-04-24 15:05 | 36.83614 | -111.44099 | 5996 ft | 144 kts | 23° |
| 2026-04-24 15:05 | 36.84509 | -111.43609 | 6006 ft | 135 kts | 18° |
| 2026-04-24 15:05 | 36.85399 | -111.43346 | 5987 ft | 128 kts | 5° |
| 2026-04-24 15:05 | 36.86250 | -111.43340 | 5894 ft | 116 kts | 353° |
| 2026-04-24 15:06 | 36.87035 | -111.43510 | 5712 ft | 110 kts | 347° |
| 2026-04-24 15:06 | 36.87770 | -111.43726 | 5494 ft | 106 kts | 345° |
| 2026-04-24 15:06 | 36.88463 | -111.43910 | 5301 ft | 100 kts | 348° |
| 2026-04-24 15:06 | 36.89132 | -111.44046 | 5086 ft | 94 kts | 349° |
| 2026-04-24 15:07 | 36.89771 | -111.44190 | 4870 ft | 93 kts | 350° |
| 2026-04-24 15:07 | 36.90398 | -111.44336 | 4712 ft | 91 kts | 347° |
| 2026-04-24 15:07 | 36.91039 | -111.44471 | 4533 ft | 93 kts | 349° |
| 2026-04-24 15:07 | 36.91669 | -111.44609 | 4343 ft | 92 kts | 350° |
| 2026-04-24 15:08 | 36.92246 | -111.44736 | 4273 ft | 66 kts | 349° |
| 2026-04-24 15:08 | 36.92560 | -111.44806 | 4261 ft | 22 kts | 340° |
| 2026-04-24 15:08 | 36.92590 | -111.44904 | 4261 ft | 15 kts | 259° |
| 2026-04-24 15:08 | 36.92566 | -111.45045 | 4261 ft | 14 kts | 246° |
| 2026-04-24 15:09 | 36.92511 | -111.45056 | 4263 ft | 3 kts | 197° |
| 2026-04-24 15:09 | 36.92504 | -111.45074 | 4263 ft | 0 kts | 263° |
| 2026-04-24 15:09 | 36.92504 | -111.45072 | 4263 ft | 0 kts | 261° |